Time;durP1;ratioP1;P1;durP2;ratioP2;P2;SDS_P1;SDS_P2;PMS_P1;PMS_P2;Temp;Humidity;BMP_temperature;BMP_pressure;BME280_temperature;BME280_humidity;BME280_pressure;Samples;Min_cycle;Max_cycle;Signal;HPM_P1;HPM_P2
2023/01/03 00:00:48;;;;;;;12.67;7.90;;;;;;;-144.22;100.00;60274.75;6290041;28;20234;-68
2023/01/03 00:03:55;;;;;;;12.33;7.70;;;;;;;-144.22;100.00;60274.75;6294489;28;20271;-67
2023/01/03 00:06:57;;;;;;;8.03;5.73;;;;;;;-144.22;100.00;60274.75;6290051;28;20234;-67
2023/01/03 00:10:07;;;;;;;8.03;5.40;;;;;;;-144.22;100.00;60274.75;6273664;28;20722;-67
2023/01/03 00:13:09;;;;;;;5.67;4.03;;;;;;;-144.22;100.00;60274.75;6293065;28;20759;-67
2023/01/03 00:16:18;;;;;;;6.13;4.47;;;;;;;-144.22;100.00;60274.75;6291333;28;20255;-68
2023/01/03 00:19:23;;;;;;;4.97;3.63;;;;;;;-144.22;100.00;60274.75;6271661;28;20598;-67
2023/01/03 00:22:25;;;;;;;4.00;2.97;;;;;;;-144.22;100.00;60274.75;6288886;28;20288;-67
2023/01/03 00:25:28;;;;;;;2.73;2.27;;;;;;;-144.22;100.00;60274.75;6286442;28;20226;-67
2023/01/03 00:28:30;;;;;;;2.53;2.30;;;;;;;-144.22;100.00;60274.75;6271921;28;20241;-67
2023/01/03 00:31:32;;;;;;;2.30;1.73;;;;;;;-144.22;100.00;60274.75;6274991;28;20663;-67
2023/01/03 00:34:35;;;;;;;3.43;1.90;;;;;;;-144.22;100.00;60274.75;6255709;28;20823;-67
2023/01/03 00:37:37;;;;;;;4.83;1.93;;;;;;;-144.22;100.00;60274.75;6287332;28;20230;-67
2023/01/03 00:40:39;;;;;;;2.93;2.20;;;;;;;-144.22;100.00;60274.75;6292796;28;20712;-67
2023/01/03 00:43:43;;;;;;;4.60;2.30;;;;;;;-144.22;100.00;60274.75;6290386;28;20722;-67
2023/01/03 00:46:46;;;;;;;3.33;2.27;;;;;;;-144.22;100.00;60274.75;6288625;28;20305;-67
2023/01/03 00:49:48;;;;;;;6.13;3.03;;;;;;;-144.22;100.00;60274.75;6288253;28;20224;-67
2023/01/03 00:52:50;;;;;;;4.30;2.50;;;;;;;-144.22;100.00;60274.75;6276598;28;20283;-68
2023/01/03 00:55:52;;;;;;;7.60;2.60;;;;;;;-144.22;100.00;60274.75;6285433;28;20264;-67
2023/01/03 00:58:54;;;;;;;4.63;2.37;;;;;;;0.34;100.00;98551.31;6289754;28;20235;-67
2023/01/03 01:01:56;;;;;;;5.97;3.17;;;;;;;2.05;100.00;98561.22;6288284;28;20353;-66
2023/01/03 01:04:58;;;;;;;5.07;3.20;;;;;;;2.11;100.00;98571.44;6288143;28;20235;-67
2023/01/03 01:08:01;;;;;;;4.30;2.90;;;;;;;2.22;100.00;78038.00;6271186;28;20592;-68
2023/01/03 01:11:03;;;;;;;6.67;3.17;;;;;;;2.33;100.00;79265.97;6285776;28;20310;-69
2023/01/03 01:14:18;;;;;;;3.80;2.60;;;;;;;-144.22;100.00;60274.75;6270053;28;20327;-67
2023/01/03 01:17:20;;;;;;;7.63;4.17;;;;;;;-144.22;100.00;60274.75;6277885;28;20247;-67
2023/01/03 01:20:23;;;;;;;6.67;3.23;;;;;;;-144.22;100.00;60274.75;6270925;28;20233;-67
2023/01/03 01:23:26;;;;;;;5.23;3.40;;;;;;;-144.22;100.00;60274.75;6271316;28;20238;-67
2023/01/03 01:26:28;;;;;;;8.30;4.87;;;;;;;-144.22;100.00;60274.75;6269914;28;20727;-68
2023/01/03 01:29:30;;;;;;;6.20;4.23;;;;;;;-144.22;100.00;60274.75;6274137;28;20233;-67
2023/01/03 01:32:32;;;;;;;8.10;3.20;;;;;;;-144.22;100.00;60274.75;6292359;28;20312;-67
2023/01/03 01:35:34;;;;;;;4.93;2.60;;;;;;;-144.22;100.00;60274.75;6287849;28;20388;-67
2023/01/03 01:38:36;;;;;;;3.83;2.10;;;;;;;-144.22;100.00;60274.75;6288869;28;20324;-67
2023/01/03 01:45:11;;;;;;;4.80;1.80;;;;;;;-144.22;100.00;60274.75;6275950;28;20229;-67
2023/01/03 01:48:15;;;;;;;4.00;2.00;;;;;;;-144.22;100.00;60274.75;6278811;28;20241;-67
2023/01/03 01:51:19;;;;;;;5.07;2.40;;;;;;;-144.22;100.00;60274.75;6273123;28;20247;-67
2023/01/03 01:54:21;;;;;;;3.70;1.80;;;;;;;-144.22;100.00;60274.75;6277831;28;20813;-67
2023/01/03 01:57:25;;;;;;;4.03;1.77;;;;;;;-144.22;100.00;60274.75;6292060;28;20231;-67
2023/01/03 02:00:27;;;;;;;2.93;1.90;;;;;;;-144.22;100.00;60274.75;6292802;28;20231;-67
2023/01/03 02:03:30;;;;;;;7.57;2.20;;;;;;;-144.22;100.00;60274.75;6275135;28;20235;-67
2023/01/03 02:06:32;;;;;;;4.73;2.30;;;;;;;-144.22;100.00;60274.75;6290687;28;20233;-68
2023/01/03 02:09:34;;;;;;;4.40;2.20;;;;;;;-144.22;100.00;60274.75;6292457;28;20310;-67
2023/01/03 02:13:05;;;;;;;3.97;2.37;;;;;;;-144.22;100.00;60274.75;6291774;28;20875;-66
2023/01/03 02:16:30;;;;;;;5.33;2.10;;;;;;;-144.22;100.00;60274.75;6281663;28;20230;-66
2023/01/03 02:19:48;;;;;;;4.87;2.03;;;;;;;-144.22;100.00;60274.75;6293135;28;20276;-66
2023/01/03 02:23:43;;;;;;;4.63;2.17;;;;;;;-144.22;100.00;60274.75;6289096;28;20258;-66
2023/01/03 02:27:08;;;;;;;4.70;2.30;;;;;;;-144.22;100.00;60274.75;6271391;28;20246;-66
2023/01/03 02:30:41;;;;;;;12.07;2.90;;;;;;;-144.22;100.00;60274.75;6289117;28;20318;-66
2023/01/03 02:34:15;;;;;;;4.83;2.23;;;;;;;-144.22;100.00;60274.75;6276385;28;20235;-66
2023/01/03 02:37:41;;;;;;;3.10;2.17;;;;;;;-144.22;100.00;60274.75;6294306;28;20307;-66
2023/01/03 02:40:54;;;;;;;3.20;2.03;;;;;;;-144.22;100.00;60274.75;6291657;28;20253;-67
2023/01/03 02:44:11;;;;;;;3.97;2.20;;;;;;;-144.22;100.00;60274.75;6292231;28;20236;-68
2023/01/03 02:47:15;;;;;;;5.27;2.37;;;;;;;-144.22;100.00;60274.75;6293005;28;20744;-66
2023/01/03 02:50:22;;;;;;;4.10;2.10;;;;;;;-144.22;100.00;60274.75;6291852;28;20874;-68
2023/01/03 02:53:37;;;;;;;5.30;1.80;;;;;;;-144.22;100.00;60274.75;6274549;28;20265;-66
2023/01/03 02:56:47;;;;;;;4.00;1.80;;;;;;;-144.22;100.00;60274.75;6283697;28;20234;-67
2023/01/03 03:00:02;;;;;;;8.20;3.57;;;;;;;-144.22;100.00;60274.75;6289462;28;20237;-66
2023/01/03 03:03:10;;;;;;;4.87;3.00;;;;;;;-144.22;100.00;60274.75;6291912;28;20225;-67
2023/01/03 03:06:18;;;;;;;5.53;2.47;;;;;;;-144.22;100.00;60274.75;6288254;28;20219;-68
2023/01/03 03:09:20;;;;;;;2.33;1.77;;;;;;;-144.22;100.00;60274.75;6288831;28;20550;-67
2023/01/03 03:13:24;;;;;;;3.87;2.07;;;;;;;-144.22;100.00;60274.75;6290046;28;20228;-67
2023/01/03 03:16:04;;;;;;;4.13;1.90;;;;;;;-144.22;100.00;60274.75;6278480;28;20601;-67
2023/01/03 03:26:29;;;;;;;4.70;2.20;;;;;;;-144.22;100.00;60274.75;6289613;28;20253;-67
2023/01/03 03:29:32;;;;;;;5.37;2.37;;;;;;;-144.22;100.00;60274.75;6289973;28;20313;-67
2023/01/03 03:32:37;;;;;;;4.70;2.17;;;;;;;-144.22;100.00;60274.75;6272963;28;20256;-67
2023/01/03 03:35:53;;;;;;;5.00;1.97;;;;;;;-144.22;100.00;60274.75;6289450;28;20234;-66
2023/01/03 03:38:56;;;;;;;3.87;1.70;;;;;;;-144.22;100.00;60274.75;6285663;28;21053;-68
2023/01/03 03:46:02;;;;;;;4.23;2.17;;;;;;;-144.22;100.00;60274.75;6170551;28;20322;-66
2023/01/03 03:52:30;;;;;;;3.23;2.10;;;;;;;-144.22;100.00;60274.75;6190208;28;20242;-67
2023/01/03 03:55:46;;;;;;;5.17;1.80;;;;;;;-144.22;100.00;60274.75;6201513;28;20239;-66
2023/01/03 03:58:54;;;;;;;3.97;2.00;;;;;;;-144.22;100.00;60274.75;6201968;28;20696;-68
2023/01/03 04:01:59;;;;;;;3.43;1.90;;;;;;;-144.22;100.00;60274.75;6197092;28;20228;-70
2023/01/03 04:05:06;;;;;;;4.70;1.90;;;;;;;-144.22;100.00;60274.75;6200494;28;20235;-67
2023/01/03 04:08:09;;;;;;;3.77;2.10;;;;;;;-144.22;100.00;60274.75;6200255;28;20304;-68
2023/01/03 04:11:11;;;;;;;2.80;1.93;;;;;;;-144.22;100.00;60274.75;6200933;28;20385;-66
2023/01/03 04:14:13;;;;;;;5.53;2.13;;;;;;;-144.22;100.00;60274.75;6173537;28;20321;-67
2023/01/03 04:17:16;;;;;;;2.73;1.70;;;;;;;-144.22;100.00;60274.75;6196440;28;20231;-67
2023/01/03 04:20:18;;;;;;;5.37;2.23;;;;;;;-144.22;100.00;60274.75;6201025;28;20230;-66
2023/01/03 04:23:20;;;;;;;2.90;1.90;;;;;;;-144.22;100.00;60274.75;6284886;28;20705;-66
2023/01/03 04:26:24;;;;;;;3.20;1.90;;;;;;;-144.22;100.00;60274.75;6270974;28;20373;-66
2023/01/03 04:29:26;;;;;;;1.97;1.77;;;;;;;-144.22;100.00;60274.75;6289638;28;20237;-67
2023/01/03 04:32:28;;;;;;;4.37;1.90;;;;;;;-144.22;100.00;60274.75;6274871;28;20312;-67
2023/01/03 04:35:33;;;;;;;3.03;1.87;;;;;;;-144.22;100.00;60274.75;6289274;28;20229;-67
2023/01/03 04:38:35;;;;;;;5.47;2.57;;;;;;;-144.22;100.00;60274.75;6291919;28;20351;-67
2023/01/03 04:41:37;;;;;;;3.53;2.07;;;;;;;-144.22;100.00;60274.75;6271299;28;20221;-67
2023/01/03 04:44:39;;;;;;;7.43;2.57;;;;;;;-144.22;100.00;60274.75;6292667;28;20710;-68
2023/01/03 04:47:41;;;;;;;5.20;2.00;;;;;;;-144.22;100.00;60274.75;6274972;28;20781;-66
2023/01/03 04:50:57;;;;;;;2.43;1.83;;;;;;;-144.22;100.00;60274.75;6291213;28;20318;-66
2023/01/03 04:53:59;;;;;;;7.03;2.90;;;;;;;-144.22;100.00;60274.75;6288333;28;20699;-66
2023/01/03 04:57:01;;;;;;;7.70;3.83;;;;;;;-144.22;100.00;60274.75;6272827;28;20271;-66
2023/01/03 05:00:04;;;;;;;4.40;2.83;;;;;;;-144.22;100.00;60274.75;6286296;28;20221;-66
2023/01/03 05:03:07;;;;;;;5.87;3.80;;;;;;;-144.22;100.00;60274.75;6288474;28;20597;-66
2023/01/03 05:06:10;;;;;;;4.33;3.77;;;;;;;-144.22;100.00;60274.75;6273993;28;20221;-66
2023/01/03 05:09:13;;;;;;;4.70;4.10;;;;;;;-144.22;100.00;60274.75;6293143;28;20590;-68
2023/01/03 05:12:15;;;;;;;4.30;3.90;;;;;;;-144.22;100.00;60274.75;6293869;28;20219;-67
2023/01/03 05:15:17;;;;;;;5.23;4.53;;;;;;;-144.22;100.00;60274.75;6256231;28;20239;-69
2023/01/03 05:18:19;;;;;;;7.13;5.50;;;;;;;-144.22;100.00;60274.75;6271016;28;20839;-66
2023/01/03 05:28:03;;;;;;;5.83;5.10;;;;;;;-144.22;100.00;60274.75;6292216;28;20266;-66
2023/01/03 05:31:06;;;;;;;6.53;5.80;;;;;;;-144.22;100.00;60274.75;6277962;28;20230;-66
2023/01/03 05:34:08;;;;;;;7.60;6.13;;;;;;;-144.22;100.00;60274.75;6271923;28;20693;-68
2023/01/03 05:37:10;;;;;;;6.17;5.33;;;;;;;-144.22;100.00;60274.75;6280116;28;20264;-67
2023/01/03 05:40:12;;;;;;;6.73;5.53;;;;;;;-144.22;100.00;60274.75;6274942;28;20226;-66
2023/01/03 05:43:15;;;;;;;6.50;5.83;;;;;;;-144.22;100.00;60274.75;6293150;28;20607;-66
2023/01/03 05:46:17;;;;;;;7.67;6.13;;;;;;;-144.22;100.00;60274.75;6275902;28;20257;-65
2023/01/03 05:49:19;;;;;;;6.40;5.57;;;;;;;-144.22;100.00;60274.75;6259200;28;20222;-66
2023/01/03 05:52:21;;;;;;;7.23;5.97;;;;;;;-144.22;100.00;60274.75;6291406;28;20237;-68
2023/01/03 05:55:23;;;;;;;6.47;5.73;;;;;;;-144.22;100.00;60274.75;6291251;28;20325;-66
2023/01/03 05:58:25;;;;;;;6.17;5.10;;;;;;;-144.22;100.00;60274.75;6275699;28;20326;-67
2023/01/03 06:01:27;;;;;;;7.63;5.27;;;;;;;-144.22;100.00;60274.75;6291725;28;20533;-66
2023/01/03 06:04:29;;;;;;;6.80;5.57;;;;;;;-144.22;100.00;60274.75;6292846;28;20712;-67
2023/01/03 06:07:32;;;;;;;6.50;5.37;;;;;;;-144.22;100.00;60274.75;6287509;28;20240;-67
2023/01/03 06:10:38;;;;;;;5.90;5.40;;;;;;;-144.22;100.00;60274.75;6275830;28;20834;-66
2023/01/03 06:13:41;;;;;;;6.93;5.40;;;;;;;-144.22;100.00;60274.75;6277227;28;20384;-66
2023/01/03 06:20:03;;;;;;;6.97;5.63;;;;;;;-144.22;100.00;60274.75;6290552;28;20309;-67
2023/01/03 06:23:06;;;;;;;7.07;5.13;;;;;;;-144.22;100.00;60274.75;6289338;28;20264;-66
2023/01/03 06:26:08;;;;;;;6.00;4.93;;;;;;;-144.22;100.00;60274.75;6292028;28;20245;-66
2023/01/03 06:29:10;;;;;;;6.07;4.57;;;;;;;-144.22;100.00;60274.75;6292095;28;20343;-67
2023/01/03 06:32:12;;;;;;;6.57;4.00;;;;;;;-144.22;100.00;60274.75;6291492;28;20702;-67
2023/01/03 06:35:14;;;;;;;6.63;3.47;;;;;;;-144.22;100.00;60274.75;6276128;28;20233;-66
2023/01/03 06:38:16;;;;;;;6.80;3.67;;;;;;;-144.22;100.00;60274.75;6277506;28;20236;-67
2023/01/03 06:41:18;;;;;;;6.27;4.13;;;;;;;-144.22;100.00;60274.75;6274711;28;20599;-66
2023/01/03 06:44:20;;;;;;;7.63;5.80;;;;;;;-144.22;100.00;60274.75;6290738;28;20656;-66
2023/01/03 06:54:05;;;;;;;9.47;8.13;;;;;;;-144.22;100.00;60274.75;6275386;28;20809;-67
2023/01/03 06:57:07;;;;;;;8.63;7.30;;;;;;;-144.22;100.00;60274.75;6288359;28;20214;-66
2023/01/03 07:00:10;;;;;;;9.93;8.00;;;;;;;-144.22;100.00;60274.75;6292476;28;20236;-66
2023/01/03 07:03:12;;;;;;;9.20;8.13;;;;;;;-144.22;100.00;60274.75;6292953;28;20222;-66
2023/01/03 07:06:14;;;;;;;9.17;8.13;;;;;;;-144.22;100.00;60274.75;6292097;28;20674;-67
2023/01/03 07:09:16;;;;;;;9.53;8.40;;;;;;;-144.22;100.00;60274.75;6293029;28;20635;-66
2023/01/03 07:15:43;;;;;;;8.90;7.77;;;;;;;-144.22;100.00;60274.75;6293345;28;20598;-66
2023/01/03 07:18:46;;;;;;;9.40;7.90;;;;;;;-144.22;100.00;60274.75;6290058;28;20238;-66
2023/01/03 07:21:55;;;;;;;8.73;7.47;;;;;;;-144.22;100.00;60274.75;6278403;28;20241;-66
2023/01/03 07:24:58;;;;;;;8.30;6.83;;;;;;;-144.22;100.00;60274.75;6292930;28;20714;-66
2023/01/03 07:28:00;;;;;;;9.73;7.27;;;;;;;-144.22;100.00;60274.75;6272661;28;20291;-67
2023/01/03 07:31:08;;;;;;;8.80;6.47;;;;;;;-144.22;100.00;60274.75;6281250;28;20232;-67
2023/01/03 07:34:11;;;;;;;6.97;6.00;;;;;;;-144.22;100.00;60274.75;6292150;28;20325;-67
2023/01/03 07:37:14;;;;;;;9.77;4.70;;;;;;;-144.22;100.00;60274.75;6272828;28;20324;-66
2023/01/03 07:40:16;;;;;;;5.67;4.90;;;;;;;-144.22;100.00;60274.75;6275349;28;20234;-66
2023/01/03 07:43:36;;;;;;;7.07;4.60;;;;;;;-144.22;100.00;60274.75;6290085;28;20311;-67
2023/01/03 07:46:39;;;;;;;9.73;4.30;;;;;;;-144.22;100.00;60274.75;6290688;28;20236;-67
2023/01/03 07:49:41;;;;;;;6.70;3.90;;;;;;;-144.22;100.00;60274.75;6292962;28;20912;-66
2023/01/03 07:52:43;;;;;;;5.30;3.93;;;;;;;-144.22;100.00;60274.75;6289675;28;20735;-67
2023/01/03 07:55:45;;;;;;;5.50;3.00;;;;;;;-144.22;100.00;60274.75;6290818;28;20233;-67
2023/01/03 07:58:50;;;;;;;6.23;3.60;;;;;;;-144.22;100.00;60274.75;6289430;28;20229;-67
2023/01/03 08:01:53;;;;;;;4.00;3.13;;;;;;;-144.22;100.00;60274.75;6291593;28;20232;-67
2023/01/03 08:04:55;;;;;;;4.47;3.40;;;;;;;-144.22;100.00;60274.75;6288375;28;20598;-66
2023/01/03 08:07:57;;;;;;;5.33;3.10;;;;;;;-144.22;100.00;60274.75;6288475;28;20588;-66
2023/01/03 08:14:21;;;;;;;5.77;3.17;;;;;;;-144.22;100.00;60274.75;6288013;28;20225;-67
2023/01/03 08:17:27;;;;;;;3.60;2.70;;;;;;;-144.22;100.00;60274.75;6292289;28;20226;-67
2023/01/03 08:20:29;;;;;;;3.27;2.53;;;;;;;-144.22;100.00;60274.75;6269097;28;20657;-66
2023/01/03 08:23:32;;;;;;;8.07;3.00;;;;;;;-144.22;100.00;60274.75;6267609;28;20284;-67
2023/01/03 08:26:34;;;;;;;6.00;2.90;;;;;;;-144.22;100.00;60274.75;6271081;28;20245;-66
2023/01/03 08:29:36;;;;;;;4.70;2.60;;;;;;;-144.22;100.00;60274.75;6287585;28;20600;-67
2023/01/03 08:32:38;;;;;;;5.57;2.60;;;;;;;-144.22;100.00;60274.75;6290936;28;20723;-66
2023/01/03 08:35:48;;;;;;;4.33;2.70;;;;;;;-144.22;100.00;60274.75;6285886;28;20841;-67
2023/01/03 08:39:05;;;;;;;5.77;2.60;;;;;;;-144.22;100.00;60274.75;6284518;28;20373;-67
2023/01/03 08:42:11;;;;;;;3.23;2.57;;;;;;;-144.22;100.00;60274.75;6285487;28;20241;-67
2023/01/03 08:45:16;;;;;;;4.03;2.67;;;;;;;-144.22;100.00;60274.75;6289684;28;20750;-67
2023/01/03 08:48:20;;;;;;;3.80;2.30;;;;;;;-144.22;100.00;60274.75;6289946;28;20248;-67
2023/01/03 08:51:25;;;;;;;4.67;2.70;;;;;;;-144.22;100.00;60274.75;6274006;28;20229;-68
2023/01/03 08:54:27;;;;;;;3.57;2.20;;;;;;;-144.22;100.00;60274.75;6290109;28;20226;-67
2023/01/03 08:57:29;;;;;;;4.40;2.60;;;;;;;-144.22;100.00;60274.75;6278749;28;20720;-67
2023/01/03 09:00:31;;;;;;;3.00;2.00;;;;;;;-144.22;100.00;60274.75;6299336;28;20709;-67
2023/01/03 09:03:34;;;;;;;5.30;2.37;;;;;;;-144.22;100.00;60274.75;6299039;28;20371;-66
2023/01/03 09:06:37;;;;;;;4.10;2.03;;;;;;;-144.22;100.00;60274.75;6277714;28;20237;-67
2023/01/03 09:09:41;;;;;;;5.07;2.33;;;;;;;-144.22;100.00;60274.75;6296750;28;20227;-68
2023/01/03 09:12:43;;;;;;;3.07;2.03;;;;;;;-144.22;100.00;60274.75;6281921;28;20228;-67
2023/01/03 09:15:45;;;;;;;3.13;1.77;;;;;;;-144.22;100.00;60274.75;6277866;28;20741;-67
2023/01/03 09:18:47;;;;;;;2.33;1.80;;;;;;;-144.22;100.00;60274.75;6275581;28;20225;-67
2023/01/03 09:21:49;;;;;;;3.53;2.37;;;;;;;-144.22;100.00;60274.75;6297401;28;20238;-68
2023/01/03 09:24:51;;;;;;;4.07;2.50;;;;;;;-144.22;100.00;60274.75;6297666;28;20245;-67
2023/01/03 09:27:53;;;;;;;4.77;2.23;;;;;;;-144.22;100.00;60274.75;6296103;28;20245;-67
2023/01/03 09:30:56;;;;;;;4.47;2.67;;;;;;;-144.22;100.00;60274.75;6282364;28;20226;-68
2023/01/03 09:33:59;;;;;;;5.13;2.60;;;;;;;-144.22;100.00;60274.75;6296322;28;20244;-67
2023/01/03 09:37:03;;;;;;;5.53;2.70;;;;;;;-144.22;100.00;60274.75;6278600;28;20321;-67
2023/01/03 09:40:05;;;;;;;4.27;2.47;;;;;;;-144.22;100.00;60274.75;6296258;28;20289;-67
2023/01/03 09:43:17;;;;;;;4.97;2.27;;;;;;;-144.22;100.00;60274.75;6298403;28;20233;-67
2023/01/03 09:46:28;;;;;;;4.03;2.13;;;;;;;-144.22;100.00;60274.75;6300117;28;20222;-67
2023/01/03 09:49:31;;;;;;;6.10;2.70;;;;;;;-144.22;100.00;60274.75;6298038;28;20765;-67
2023/01/03 10:06:28;;;;;;;2.47;1.70;;;;;;;-144.22;100.00;60274.75;6294709;28;20591;-67
2023/01/03 10:10:09;;;;;;;2.63;1.97;;;;;;;-144.22;100.00;60274.75;6276353;28;20224;-68
2023/01/03 10:13:36;;;;;;;5.47;2.07;;;;;;;-144.22;100.00;60274.75;6283031;28;20231;-67
2023/01/03 10:16:47;;;;;;;2.63;1.80;;;;;;;-144.22;100.00;60274.75;6280185;28;20237;-68
2023/01/03 10:20:05;;;;;;;1.70;1.50;;;;;;;-144.22;100.00;60274.75;6292042;28;20246;-67
2023/01/03 10:23:09;;;;;;;5.43;2.20;;;;;;;-144.22;100.00;60274.75;6293206;28;20259;-67
2023/01/03 10:26:12;;;;;;;4.30;1.73;;;;;;;-144.22;100.00;60274.75;6289591;28;20602;-67
2023/01/03 10:29:17;;;;;;;3.53;1.67;;;;;;;-144.22;100.00;60274.75;6291946;28;20701;-68
2023/01/03 10:32:57;;;;;;;1.90;1.60;;;;;;;-144.22;100.00;60274.75;6293005;28;20236;-67
2023/01/03 10:36:00;;;;;;;2.37;1.83;;;;;;;-144.22;100.00;60274.75;6192788;28;20603;-68
2023/01/03 10:39:09;;;;;;;2.40;2.07;;;;;;;-144.22;100.00;60274.75;6186523;28;20229;-68
2023/01/03 10:42:17;;;;;;;3.00;2.23;;;;;;;-144.22;100.00;60274.75;6192411;28;20301;-67
2023/01/03 10:45:20;;;;;;;3.77;2.40;;;;;;;-144.22;100.00;60274.75;6174881;28;20210;-67
2023/01/03 10:48:25;;;;;;;3.40;2.43;;;;;;;-144.22;100.00;60274.75;6187971;28;20290;-68
2023/01/03 10:51:37;;;;;;;4.23;2.40;;;;;;;-144.22;100.00;60274.75;6176646;28;20750;-67
2023/01/03 10:54:46;;;;;;;5.13;2.60;;;;;;;-144.22;100.00;60274.75;6187300;28;20656;-68
2023/01/03 10:57:51;;;;;;;5.30;2.30;;;;;;;-144.22;100.00;60274.75;6187641;28;20382;-67
2023/01/03 11:01:10;;;;;;;4.60;2.00;;;;;;;-144.22;100.00;60274.75;6183668;28;20232;-67
2023/01/03 11:04:17;;;;;;;3.27;2.30;;;;;;;-144.22;100.00;60274.75;6173138;28;20783;-68
2023/01/03 11:07:19;;;;;;;3.93;2.10;;;;;;;-144.22;100.00;60274.75;6173638;28;20229;-67
2023/01/03 11:10:23;;;;;;;2.27;1.67;;;;;;;-144.22;100.00;60274.75;6210548;28;20484;-68
2023/01/03 11:13:39;;;;;;;2.47;1.87;;;;;;;-144.22;100.00;60274.75;6272043;28;20228;-67
2023/01/03 11:16:41;;;;;;;3.53;1.97;;;;;;;-144.22;100.00;60274.75;6276056;28;20824;-68
2023/01/03 11:19:44;;;;;;;1.67;1.57;;;;;;;-144.22;100.00;60274.75;6268244;28;20703;-68
2023/01/03 11:23:00;;;;;;;2.70;2.00;;;;;;;-144.22;100.00;60274.75;6289925;28;20312;-67
2023/01/03 11:26:53;;;;;;;4.23;1.80;;;;;;;-144.22;100.00;60274.75;6288936;28;20245;-68
2023/01/03 11:30:15;;;;;;;1.80;1.57;;;;;;;-144.22;100.00;60274.75;6237465;28;20237;-67
2023/01/03 11:33:45;;;;;;;2.00;1.80;;;;;;;-144.22;100.00;60274.75;6292250;28;20220;-67
2023/01/03 11:37:00;;;;;;;4.90;1.50;;;;;;;-144.22;100.00;60274.75;6297812;28;20235;-67
2023/01/03 11:40:32;;;;;;;2.70;1.40;;;;;;;-144.22;100.00;60274.75;6290856;28;20575;-67
2023/01/03 11:43:46;;;;;;;2.03;1.60;;;;;;;-144.22;100.00;60274.75;6273161;28;20231;-67
2023/01/03 11:47:13;;;;;;;2.20;1.73;;;;;;;-144.22;100.00;60274.75;6271947;28;20228;-67
2023/01/03 11:50:40;;;;;;;1.67;1.40;;;;;;;-144.22;100.00;60274.75;6290520;28;20231;-67
2023/01/03 11:54:02;;;;;;;2.20;1.77;;;;;;;-144.22;100.00;60274.75;6280931;28;20227;-67
2023/01/03 11:57:33;;;;;;;2.93;2.00;;;;;;;-144.22;100.00;60274.75;6289604;28;20707;-67
2023/01/03 12:01:08;;;;;;;4.70;2.23;;;;;;;-144.22;100.00;60274.75;6277268;28;20593;-67
2023/01/03 12:04:32;;;;;;;2.50;1.83;;;;;;;-144.22;100.00;60274.75;6290438;28;20242;-68
2023/01/03 12:07:55;;;;;;;4.27;2.23;;;;;;;-144.22;100.00;60274.75;6289346;28;20828;-67
2023/01/03 12:11:08;;;;;;;2.07;1.73;;;;;;;-144.22;100.00;60274.75;6280063;28;20267;-68
2023/01/03 12:14:32;;;;;;;3.00;1.60;;;;;;;-144.22;100.00;60274.75;6286651;28;20262;-67
2023/01/03 12:17:43;;;;;;;2.67;1.70;;;;;;;-144.22;100.00;60274.75;6286731;28;20257;-67
2023/01/03 12:20:56;;;;;;;2.80;1.53;;;;;;;-144.22;100.00;60274.75;6288598;28;20237;-68
2023/01/03 12:24:40;;;;;;;2.27;1.60;;;;;;;-144.22;100.00;60274.75;6274417;28;20581;-68
2023/01/03 12:27:50;;;;;;;2.33;1.70;;;;;;;-144.22;100.00;60274.75;6260306;28;20323;-67
2023/01/03 12:31:17;;;;;;;1.70;1.60;;;;;;;-144.22;100.00;60274.75;6289746;28;20370;-67
2023/01/03 12:35:16;;;;;;;1.93;1.70;;;;;;;-144.22;100.00;60274.75;6290696;28;20236;-68
2023/01/03 12:38:26;;;;;;;2.47;1.80;;;;;;;-144.22;100.00;60274.75;6233560;28;20252;-68
2023/01/03 12:41:59;;;;;;;2.47;2.00;;;;;;;-144.22;100.00;60274.75;6238731;28;20230;-67
2023/01/03 12:45:08;;;;;;;1.90;1.70;;;;;;;-144.22;100.00;60274.75;6230446;28;20699;-67
2023/01/03 12:48:19;;;;;;;2.03;1.60;;;;;;;-144.22;100.00;60274.75;6216552;28;20235;-68
2023/01/03 12:51:26;;;;;;;7.43;2.03;;;;;;;-144.22;100.00;60274.75;6232657;28;20230;-68
2023/01/03 12:54:47;;;;;;;2.03;1.50;;;;;;;-144.22;100.00;60274.75;6237249;28;20228;-67
2023/01/03 12:58:14;;;;;;;2.30;1.40;;;;;;;-144.22;100.00;60274.75;6239797;28;20253;-68
2023/01/03 13:01:21;;;;;;;2.80;1.70;;;;;;;-144.22;100.00;60274.75;6236576;28;20226;-68
2023/01/03 13:04:33;;;;;;;2.70;2.00;;;;;;;-144.22;100.00;60274.75;6236577;28;20715;-67
2023/01/03 13:07:36;;;;;;;3.17;1.70;;;;;;;-144.22;100.00;60274.75;6240738;28;20232;-68
2023/01/03 13:10:43;;;;;;;1.67;1.33;;;;;;;-144.22;100.00;60274.75;6288845;28;20293;-68
2023/01/03 13:13:54;;;;;;;1.73;1.50;;;;;;;-144.22;100.00;60274.75;6274789;28;20330;-68
2023/01/03 13:17:16;;;;;;;4.63;1.63;;;;;;;-144.22;100.00;60274.75;6288516;28;20330;-68
2023/01/03 13:20:30;;;;;;;3.33;1.80;;;;;;;-144.22;100.00;60274.75;6289621;28;20310;-67
2023/01/03 13:23:56;;;;;;;2.60;1.70;;;;;;;-144.22;100.00;60274.75;6289355;28;20244;-67
2023/01/03 13:27:19;;;;;;;1.80;1.50;;;;;;;-144.22;100.00;60274.75;6286407;28;20322;-67
2023/01/03 13:30:27;;;;;;;3.10;2.43;;;;;;;-144.22;100.00;60274.75;6287753;28;20605;-67
2023/01/03 13:33:52;;;;;;;1.90;1.60;;;;;;;-144.22;100.00;60274.75;6289074;28;20358;-68
2023/01/03 13:37:15;;;;;;;3.90;1.80;;;;;;;-144.22;100.00;60274.75;6288345;28;20589;-67
2023/01/03 13:40:29;;;;;;;2.43;2.10;;;;;;;-144.22;100.00;60274.75;6287767;28;20238;-68
2023/01/03 13:43:53;;;;;;;2.47;1.43;;;;;;;-144.22;100.00;60274.75;6293604;28;20601;-68
2023/01/03 13:46:55;;;;;;;2.53;1.80;;;;;;;-144.22;100.00;60274.75;6279712;28;20674;-67
2023/01/03 13:49:58;;;;;;;2.00;1.40;;;;;;;-144.22;100.00;60274.75;6292587;28;20712;-68
2023/01/03 13:53:03;;;;;;;2.07;1.80;;;;;;;-144.22;100.00;60274.75;6295440;28;20700;-68
2023/01/03 13:56:14;;;;;;;2.70;1.97;;;;;;;-144.22;100.00;60274.75;6294430;28;20234;-67
2023/01/03 13:59:47;;;;;;;2.27;1.63;;;;;;;-144.22;100.00;60274.75;6293558;28;20710;-69
2023/01/03 14:03:00;;;;;;;2.50;1.53;;;;;;;-144.22;100.00;60274.75;6280123;28;20295;-67
2023/01/03 14:06:25;;;;;;;1.73;1.60;;;;;;;-144.22;100.00;60274.75;6270419;28;20410;-68
2023/01/03 14:10:12;;;;;;;2.67;1.60;;;;;;;-144.22;100.00;60274.75;6291918;28;20246;-67
2023/01/03 14:13:40;;;;;;;2.60;1.53;;;;;;;-144.22;100.00;60274.75;6275457;28;20279;-67
2023/01/03 14:16:49;;;;;;;2.87;1.90;;;;;;;-144.22;100.00;60274.75;6292152;28;20235;-68
2023/01/03 14:19:55;;;;;;;3.17;1.90;;;;;;;-144.22;100.00;60274.75;6279427;28;20626;-67
2023/01/03 14:23:03;;;;;;;1.87;1.63;;;;;;;-144.22;100.00;60274.75;6279676;28;20221;-67
2023/01/03 14:26:26;;;;;;;2.07;1.60;;;;;;;-144.22;100.00;60274.75;6291646;28;20255;-68
2023/01/03 14:29:28;;;;;;;2.43;1.70;;;;;;;-144.22;100.00;60274.75;6291764;28;20235;-67
2023/01/03 14:32:36;;;;;;;3.13;1.90;;;;;;;-144.22;100.00;60274.75;6293096;28;20231;-67
2023/01/03 14:35:40;;;;;;;2.03;1.83;;;;;;;-144.22;100.00;60274.75;6272499;28;20234;-67
2023/01/03 14:38:48;;;;;;;2.40;1.90;;;;;;;-144.22;100.00;60274.75;6275585;28;20242;-67
2023/01/03 14:41:50;;;;;;;2.43;1.97;;;;;;;-144.22;100.00;60274.75;6274193;28;20229;-68
2023/01/03 14:44:56;;;;;;;2.47;1.77;;;;;;;-144.22;100.00;60274.75;6271759;28;20262;-67
2023/01/03 14:47:59;;;;;;;3.23;1.90;;;;;;;-144.22;100.00;60274.75;6292115;28;20601;-68
2023/01/03 14:51:04;;;;;;;3.30;2.23;;;;;;;-144.22;100.00;60274.75;6292933;28;20268;-68
2023/01/03 14:54:07;;;;;;;3.53;2.00;;;;;;;-144.22;100.00;60274.75;6290467;28;20716;-67
2023/01/03 14:57:16;;;;;;;2.33;1.60;;;;;;;-144.22;100.00;60274.75;6270794;28;20220;-67
2023/01/03 15:00:23;;;;;;;2.03;1.87;;;;;;;-144.22;100.00;60274.75;6288698;28;20218;-68
2023/01/03 15:03:37;;;;;;;1.80;1.40;;;;;;;-144.22;100.00;60274.75;6297475;28;20596;-68
2023/01/03 15:06:55;;;;;;;1.37;1.27;;;;;;;-144.22;100.00;60274.75;6273354;28;20594;-67
2023/01/03 15:10:36;;;;;;;2.37;1.60;;;;;;;-144.22;100.00;60274.75;6291027;28;20238;-68
2023/01/03 15:13:47;;;;;;;2.53;1.47;;;;;;;-144.22;100.00;60274.75;6271151;28;20249;-68